sensor_id;sensor_type;location;lat;lon;timestamp;temperature;humidity
30648;DHT22;17683;53.360;9.736;2022-11-20T00:01:23;0.10;99.90
30648;DHT22;17683;53.360;9.736;2022-11-20T00:03:50;0.10;99.90
30648;DHT22;17683;53.360;9.736;2022-11-20T00:06:18;0.10;99.90
30648;DHT22;17683;53.360;9.736;2022-11-20T00:08:44;0.10;99.90
30648;DHT22;17683;53.360;9.736;2022-11-20T00:11:12;0.10;99.90
30648;DHT22;17683;53.360;9.736;2022-11-20T00:13:39;0.10;99.90
30648;DHT22;17683;53.360;9.736;2022-11-20T00:16:07;0.10;99.90
30648;DHT22;17683;53.360;9.736;2022-11-20T00:18:34;0.20;99.90
30648;DHT22;17683;53.360;9.736;2022-11-20T00:21:02;0.10;99.90
30648;DHT22;17683;53.360;9.736;2022-11-20T00:23:28;0.10;99.90
30648;DHT22;17683;53.360;9.736;2022-11-20T00:25:53;0.10;99.90
30648;DHT22;17683;53.360;9.736;2022-11-20T00:28:19;0.20;99.90
30648;DHT22;17683;53.360;9.736;2022-11-20T00:30:45;0.10;99.90
30648;DHT22;17683;53.360;9.736;2022-11-20T00:33:10;0.20;99.90
30648;DHT22;17683;53.360;9.736;2022-11-20T00:35:36;0.20;99.90
30648;DHT22;17683;53.360;9.736;2022-11-20T00:38:02;0.20;99.90
30648;DHT22;17683;53.360;9.736;2022-11-20T00:40:27;0.20;99.90
30648;DHT22;17683;53.360;9.736;2022-11-20T00:42:53;0.20;99.90
30648;DHT22;17683;53.360;9.736;2022-11-20T00:45:19;0.10;99.90
30648;DHT22;17683;53.360;9.736;2022-11-20T00:47:45;0.20;99.90
30648;DHT22;17683;53.360;9.736;2022-11-20T00:50:10;0.20;99.90
30648;DHT22;17683;53.360;9.736;2022-11-20T00:52:36;0.10;99.90
30648;DHT22;17683;53.360;9.736;2022-11-20T00:55:02;0.10;99.90
30648;DHT22;17683;53.360;9.736;2022-11-20T00:57:27;0.10;99.90
30648;DHT22;17683;53.360;9.736;2022-11-20T00:59:53;0.10;99.90
30648;DHT22;17683;53.360;9.736;2022-11-20T01:02:19;0.10;99.90
30648;DHT22;17683;53.360;9.736;2022-11-20T01:04:44;0.20;99.90
30648;DHT22;17683;53.360;9.736;2022-11-20T01:07:10;0.20;99.90
30648;DHT22;17683;53.360;9.736;2022-11-20T01:09:36;0.10;99.90
30648;DHT22;17683;53.360;9.736;2022-11-20T01:12:02;0.10;99.90
30648;DHT22;17683;53.360;9.736;2022-11-20T01:14:27;0.10;99.90
30648;DHT22;17683;53.360;9.736;2022-11-20T01:16:53;0.20;99.90
30648;DHT22;17683;53.360;9.736;2022-11-20T01:19:22;0.10;99.90
30648;DHT22;17683;53.360;9.736;2022-11-20T01:21:51;0.10;99.90
30648;DHT22;17683;53.360;9.736;2022-11-20T01:24:19;0.10;99.90
30648;DHT22;17683;53.360;9.736;2022-11-20T01:26:47;0.10;99.90
30648;DHT22;17683;53.360;9.736;2022-11-20T01:29:18;0.10;99.90
30648;DHT22;17683;53.360;9.736;2022-11-20T01:31:45;0.10;99.90
30648;DHT22;17683;53.360;9.736;2022-11-20T01:34:13;0.10;99.90
30648;DHT22;17683;53.360;9.736;2022-11-20T01:36:40;0.10;99.90
30648;DHT22;17683;53.360;9.736;2022-11-20T01:39:16;0.10;99.90
30648;DHT22;17683;53.360;9.736;2022-11-20T01:41:42;0.10;99.90
30648;DHT22;17683;53.360;9.736;2022-11-20T01:45:00;0.10;99.90
30648;DHT22;17683;53.360;9.736;2022-11-20T01:47:39;0.10;99.90
30648;DHT22;17683;53.360;9.736;2022-11-20T01:50:18;0.10;99.90
30648;DHT22;17683;53.360;9.736;2022-11-20T01:53:03;0.10;99.90
30648;DHT22;17683;53.360;9.736;2022-11-20T01:55:34;0.10;99.90
30648;DHT22;17683;53.360;9.736;2022-11-20T01:58:03;0.10;99.90
30648;DHT22;17683;53.360;9.736;2022-11-20T02:00:29;0.10;99.90
30648;DHT22;17683;53.360;9.736;2022-11-20T02:02:58;0.10;99.90
30648;DHT22;17683;53.360;9.736;2022-11-20T02:05:31;0.10;99.90
30648;DHT22;17683;53.360;9.736;2022-11-20T02:07:59;0.10;99.90
30648;DHT22;17683;53.360;9.736;2022-11-20T02:10:26;0.10;99.90
30648;DHT22;17683;53.360;9.736;2022-11-20T02:12:52;0.10;99.90
30648;DHT22;17683;53.360;9.736;2022-11-20T02:15:36;0.10;99.90
30648;DHT22;17683;53.360;9.736;2022-11-20T02:18:02;0.10;99.90
30648;DHT22;17683;53.360;9.736;2022-11-20T02:20:28;0.10;99.90
30648;DHT22;17683;53.360;9.736;2022-11-20T02:22:58;0.10;99.90
30648;DHT22;17683;53.360;9.736;2022-11-20T02:25:26;0.10;99.90
30648;DHT22;17683;53.360;9.736;2022-11-20T02:27:53;0.10;99.90
30648;DHT22;17683;53.360;9.736;2022-11-20T02:30:19;0.10;99.90
30648;DHT22;17683;53.360;9.736;2022-11-20T02:32:45;0.10;99.90
30648;DHT22;17683;53.360;9.736;2022-11-20T02:37:48;0.10;99.90
30648;DHT22;17683;53.360;9.736;2022-11-20T02:40:15;0.10;99.90
30648;DHT22;17683;53.360;9.736;2022-11-20T02:42:41;0.10;99.90
30648;DHT22;17683;53.360;9.736;2022-11-20T02:45:07;0.10;99.90
30648;DHT22;17683;53.360;9.736;2022-11-20T02:47:33;0.10;99.90
30648;DHT22;17683;53.360;9.736;2022-11-20T02:49:59;0.10;99.90
30648;DHT22;17683;53.360;9.736;2022-11-20T02:52:25;0.10;99.90
30648;DHT22;17683;53.360;9.736;2022-11-20T02:54:51;0.10;99.90
30648;DHT22;17683;53.360;9.736;2022-11-20T02:57:17;0.00;99.90
30648;DHT22;17683;53.360;9.736;2022-11-20T02:59:42;0.00;99.90
30648;DHT22;17683;53.360;9.736;2022-11-20T03:02:08;0.00;99.90
30648;DHT22;17683;53.360;9.736;2022-11-20T03:04:34;0.00;99.90
30648;DHT22;17683;53.360;9.736;2022-11-20T03:07:00;0.00;99.90
30648;DHT22;17683;53.360;9.736;2022-11-20T03:09:26;0.10;99.90
30648;DHT22;17683;53.360;9.736;2022-11-20T03:11:51;0.10;99.90
30648;DHT22;17683;53.360;9.736;2022-11-20T03:14:17;0.10;99.90
30648;DHT22;17683;53.360;9.736;2022-11-20T03:16:43;0.10;99.90
30648;DHT22;17683;53.360;9.736;2022-11-20T03:19:09;0.10;99.90
30648;DHT22;17683;53.360;9.736;2022-11-20T03:21:35;0.10;99.90
30648;DHT22;17683;53.360;9.736;2022-11-20T03:24:01;0.10;99.90
30648;DHT22;17683;53.360;9.736;2022-11-20T03:26:27;0.10;99.90
30648;DHT22;17683;53.360;9.736;2022-11-20T03:28:57;0.10;99.90
30648;DHT22;17683;53.360;9.736;2022-11-20T03:31:26;0.10;99.90
30648;DHT22;17683;53.360;9.736;2022-11-20T03:33:52;0.10;99.90
30648;DHT22;17683;53.360;9.736;2022-11-20T03:36:20;0.10;99.90
30648;DHT22;17683;53.360;9.736;2022-11-20T03:38:46;0.20;99.90
30648;DHT22;17683;53.360;9.736;2022-11-20T03:41:21;0.20;99.90
30648;DHT22;17683;53.360;9.736;2022-11-20T03:43:48;0.20;99.90
30648;DHT22;17683;53.360;9.736;2022-11-20T03:46:14;0.10;99.90
30648;DHT22;17683;53.360;9.736;2022-11-20T03:48:40;0.10;99.90
30648;DHT22;17683;53.360;9.736;2022-11-20T03:51:23;0.10;99.90
30648;DHT22;17683;53.360;9.736;2022-11-20T03:53:51;0.10;99.90
30648;DHT22;17683;53.360;9.736;2022-11-20T03:56:20;0.10;99.90
30648;DHT22;17683;53.360;9.736;2022-11-20T03:58:47;0.10;99.90
30648;DHT22;17683;53.360;9.736;2022-11-20T04:01:22;0.10;99.90
30648;DHT22;17683;53.360;9.736;2022-11-20T04:03:48;0.20;99.90
30648;DHT22;17683;53.360;9.736;2022-11-20T04:06:19;0.10;99.90
30648;DHT22;17683;53.360;9.736;2022-11-20T04:08:45;0.10;99.90
30648;DHT22;17683;53.360;9.736;2022-11-20T04:13:42;0.10;99.90
30648;DHT22;17683;53.360;9.736;2022-11-20T04:16:09;0.10;99.90
30648;DHT22;17683;53.360;9.736;2022-11-20T04:18:35;0.10;99.90
30648;DHT22;17683;53.360;9.736;2022-11-20T04:21:02;0.20;99.90
30648;DHT22;17683;53.360;9.736;2022-11-20T04:23:28;0.10;99.90
30648;DHT22;17683;53.360;9.736;2022-11-20T04:25:54;0.10;99.90
30648;DHT22;17683;53.360;9.736;2022-11-20T04:28:20;0.10;99.90
30648;DHT22;17683;53.360;9.736;2022-11-20T04:30:46;0.10;99.90
30648;DHT22;17683;53.360;9.736;2022-11-20T04:33:12;0.10;99.90
30648;DHT22;17683;53.360;9.736;2022-11-20T04:35:37;0.10;99.90
30648;DHT22;17683;53.360;9.736;2022-11-20T04:38:04;0.20;99.90
30648;DHT22;17683;53.360;9.736;2022-11-20T04:40:30;0.20;99.90
30648;DHT22;17683;53.360;9.736;2022-11-20T04:42:56;0.20;99.90
30648;DHT22;17683;53.360;9.736;2022-11-20T04:45:24;0.20;99.90
30648;DHT22;17683;53.360;9.736;2022-11-20T04:47:50;0.20;99.90
30648;DHT22;17683;53.360;9.736;2022-11-20T04:50:15;0.20;99.90
30648;DHT22;17683;53.360;9.736;2022-11-20T04:52:41;0.10;99.90
30648;DHT22;17683;53.360;9.736;2022-11-20T04:55:07;0.10;99.90
30648;DHT22;17683;53.360;9.736;2022-11-20T04:57:33;0.20;99.90
30648;DHT22;17683;53.360;9.736;2022-11-20T04:59:59;0.20;99.90
30648;DHT22;17683;53.360;9.736;2022-11-20T05:02:24;0.10;99.90
30648;DHT22;17683;53.360;9.736;2022-11-20T05:04:50;0.20;99.90
30648;DHT22;17683;53.360;9.736;2022-11-20T05:07:16;0.20;99.90
30648;DHT22;17683;53.360;9.736;2022-11-20T05:09:42;0.10;99.90
30648;DHT22;17683;53.360;9.736;2022-11-20T05:12:08;0.20;99.90
30648;DHT22;17683;53.360;9.736;2022-11-20T05:14:34;0.20;99.90
30648;DHT22;17683;53.360;9.736;2022-11-20T05:17:00;0.20;99.90
30648;DHT22;17683;53.360;9.736;2022-11-20T05:19:26;0.10;99.90
30648;DHT22;17683;53.360;9.736;2022-11-20T05:21:51;0.20;99.90
30648;DHT22;17683;53.360;9.736;2022-11-20T05:24:17;0.10;99.90
30648;DHT22;17683;53.360;9.736;2022-11-20T05:26:43;0.20;99.90
30648;DHT22;17683;53.360;9.736;2022-11-20T05:29:12;0.20;99.90
30648;DHT22;17683;53.360;9.736;2022-11-20T05:31:40;0.20;99.90
30648;DHT22;17683;53.360;9.736;2022-11-20T05:34:06;0.20;99.90
30648;DHT22;17683;53.360;9.736;2022-11-20T05:36:33;0.20;99.90
30648;DHT22;17683;53.360;9.736;2022-11-20T05:38:59;0.20;99.90
30648;DHT22;17683;53.360;9.736;2022-11-20T05:41:24;0.30;99.90
30648;DHT22;17683;53.360;9.736;2022-11-20T05:43:51;0.30;99.90
30648;DHT22;17683;53.360;9.736;2022-11-20T05:46:18;0.30;99.90
30648;DHT22;17683;53.360;9.736;2022-11-20T05:48:45;0.20;99.90
30648;DHT22;17683;53.360;9.736;2022-11-20T05:51:14;0.30;99.90
30648;DHT22;17683;53.360;9.736;2022-11-20T05:53:40;0.20;99.90
30648;DHT22;17683;53.360;9.736;2022-11-20T05:56:11;0.20;99.90
30648;DHT22;17683;53.360;9.736;2022-11-20T05:58:38;0.30;99.90
30648;DHT22;17683;53.360;9.736;2022-11-20T06:01:08;0.30;99.90
30648;DHT22;17683;53.360;9.736;2022-11-20T06:03:35;0.30;99.90
30648;DHT22;17683;53.360;9.736;2022-11-20T06:06:02;0.30;99.90
30648;DHT22;17683;53.360;9.736;2022-11-20T06:08:28;0.30;99.90
30648;DHT22;17683;53.360;9.736;2022-11-20T06:10:54;0.30;99.90
30648;DHT22;17683;53.360;9.736;2022-11-20T06:13:20;0.30;99.90
30648;DHT22;17683;53.360;9.736;2022-11-20T06:15:53;0.30;99.90
30648;DHT22;17683;53.360;9.736;2022-11-20T06:18:19;0.30;99.90
30648;DHT22;17683;53.360;9.736;2022-11-20T06:20:45;0.30;99.90
30648;DHT22;17683;53.360;9.736;2022-11-20T06:23:11;0.40;99.90
30648;DHT22;17683;53.360;9.736;2022-11-20T06:25:41;0.40;99.90
30648;DHT22;17683;53.360;9.736;2022-11-20T06:28:07;0.40;99.90
30648;DHT22;17683;53.360;9.736;2022-11-20T06:30:34;0.40;99.90
30648;DHT22;17683;53.360;9.736;2022-11-20T06:33:00;0.40;99.90
30648;DHT22;17683;53.360;9.736;2022-11-20T06:35:26;0.40;99.90
30648;DHT22;17683;53.360;9.736;2022-11-20T06:37:51;0.40;99.90
30648;DHT22;17683;53.360;9.736;2022-11-20T06:40:17;0.40;99.90
30648;DHT22;17683;53.360;9.736;2022-11-20T06:42:43;0.40;99.90
30648;DHT22;17683;53.360;9.736;2022-11-20T06:45:09;0.40;99.90
30648;DHT22;17683;53.360;9.736;2022-11-20T06:47:34;0.40;99.90
30648;DHT22;17683;53.360;9.736;2022-11-20T06:50:00;0.40;99.90
30648;DHT22;17683;53.360;9.736;2022-11-20T06:52:26;0.40;99.90
30648;DHT22;17683;53.360;9.736;2022-11-20T06:54:51;0.40;99.90
30648;DHT22;17683;53.360;9.736;2022-11-20T06:57:17;0.40;99.90
30648;DHT22;17683;53.360;9.736;2022-11-20T06:59:43;0.40;99.90
30648;DHT22;17683;53.360;9.736;2022-11-20T07:02:12;0.40;99.90
30648;DHT22;17683;53.360;9.736;2022-11-20T07:04:38;0.40;99.90
30648;DHT22;17683;53.360;9.736;2022-11-20T07:07:04;0.40;99.90
30648;DHT22;17683;53.360;9.736;2022-11-20T07:09:31;0.40;99.90
30648;DHT22;17683;53.360;9.736;2022-11-20T07:11:57;0.40;99.90
30648;DHT22;17683;53.360;9.736;2022-11-20T07:14:23;0.40;99.90
30648;DHT22;17683;53.360;9.736;2022-11-20T07:16:49;0.40;99.90
30648;DHT22;17683;53.360;9.736;2022-11-20T07:19:14;0.50;99.90
30648;DHT22;17683;53.360;9.736;2022-11-20T07:21:40;0.50;99.90
30648;DHT22;17683;53.360;9.736;2022-11-20T07:24:06;0.50;99.90
30648;DHT22;17683;53.360;9.736;2022-11-20T07:26:32;0.50;99.90
30648;DHT22;17683;53.360;9.736;2022-11-20T07:28:57;0.50;99.90
30648;DHT22;17683;53.360;9.736;2022-11-20T07:31:23;0.50;99.90
30648;DHT22;17683;53.360;9.736;2022-11-20T07:33:49;0.50;99.90
30648;DHT22;17683;53.360;9.736;2022-11-20T07:36:15;0.50;99.90
30648;DHT22;17683;53.360;9.736;2022-11-20T07:38:40;0.60;99.90
30648;DHT22;17683;53.360;9.736;2022-11-20T07:41:06;0.60;99.90
30648;DHT22;17683;53.360;9.736;2022-11-20T07:43:32;0.50;99.90
30648;DHT22;17683;53.360;9.736;2022-11-20T07:45:58;0.50;99.90
30648;DHT22;17683;53.360;9.736;2022-11-20T07:48:25;0.60;99.90
30648;DHT22;17683;53.360;9.736;2022-11-20T07:50:57;0.60;99.90
30648;DHT22;17683;53.360;9.736;2022-11-20T07:53:23;0.60;99.90
30648;DHT22;17683;53.360;9.736;2022-11-20T07:55:49;0.70;99.90
30648;DHT22;17683;53.360;9.736;2022-11-20T07:58:18;0.70;99.90
30648;DHT22;17683;53.360;9.736;2022-11-20T08:00:44;0.70;99.90
30648;DHT22;17683;53.360;9.736;2022-11-20T08:03:10;0.70;99.90
30648;DHT22;17683;53.360;9.736;2022-11-20T08:05:35;0.70;99.90
30648;DHT22;17683;53.360;9.736;2022-11-20T08:08:03;0.60;99.90
30648;DHT22;17683;53.360;9.736;2022-11-20T08:10:28;0.60;99.90
30648;DHT22;17683;53.360;9.736;2022-11-20T08:12:54;0.70;99.90
30648;DHT22;17683;53.360;9.736;2022-11-20T08:15:39;0.60;99.90
30648;DHT22;17683;53.360;9.736;2022-11-20T08:18:08;0.60;99.90
30648;DHT22;17683;53.360;9.736;2022-11-20T08:20:34;0.60;99.90
30648;DHT22;17683;53.360;9.736;2022-11-20T08:23:01;0.60;99.90
30648;DHT22;17683;53.360;9.736;2022-11-20T08:25:29;0.70;99.90
30648;DHT22;17683;53.360;9.736;2022-11-20T08:27:59;0.70;99.90
30648;DHT22;17683;53.360;9.736;2022-11-20T08:30:26;0.70;99.90
30648;DHT22;17683;53.360;9.736;2022-11-20T08:32:53;0.70;99.90
30648;DHT22;17683;53.360;9.736;2022-11-20T08:35:19;0.70;99.90
30648;DHT22;17683;53.360;9.736;2022-11-20T08:37:49;0.60;99.90
30648;DHT22;17683;53.360;9.736;2022-11-20T08:40:15;0.70;99.90
30648;DHT22;17683;53.360;9.736;2022-11-20T08:42:48;0.70;99.90
30648;DHT22;17683;53.360;9.736;2022-11-20T08:45:15;0.70;99.90
30648;DHT22;17683;53.360;9.736;2022-11-20T08:47:41;0.70;99.90
30648;DHT22;17683;53.360;9.736;2022-11-20T08:50:09;0.80;99.90
30648;DHT22;17683;53.360;9.736;2022-11-20T08:52:34;0.80;99.90
30648;DHT22;17683;53.360;9.736;2022-11-20T08:55:00;0.80;99.90
30648;DHT22;17683;53.360;9.736;2022-11-20T08:57:26;0.80;99.90
30648;DHT22;17683;53.360;9.736;2022-11-20T08:59:52;0.80;99.90
30648;DHT22;17683;53.360;9.736;2022-11-20T09:02:18;0.80;99.90
30648;DHT22;17683;53.360;9.736;2022-11-20T09:04:43;0.80;99.90
30648;DHT22;17683;53.360;9.736;2022-11-20T09:07:09;0.80;99.90
30648;DHT22;17683;53.360;9.736;2022-11-20T09:09:35;0.80;99.90
30648;DHT22;17683;53.360;9.736;2022-11-20T09:12:01;0.80;99.90
30648;DHT22;17683;53.360;9.736;2022-11-20T09:14:26;0.80;99.90
30648;DHT22;17683;53.360;9.736;2022-11-20T09:16:55;0.80;99.90
30648;DHT22;17683;53.360;9.736;2022-11-20T09:19:21;0.80;99.90
30648;DHT22;17683;53.360;9.736;2022-11-20T09:21:47;0.90;99.90
30648;DHT22;17683;53.360;9.736;2022-11-20T09:24:12;0.90;99.90
30648;DHT22;17683;53.360;9.736;2022-11-20T09:26:38;1.00;99.90
30648;DHT22;17683;53.360;9.736;2022-11-20T09:29:04;1.00;99.90
30648;DHT22;17683;53.360;9.736;2022-11-20T09:31:29;1.20;99.90
30648;DHT22;17683;53.360;9.736;2022-11-20T09:33:55;1.20;99.90
30648;DHT22;17683;53.360;9.736;2022-11-20T09:36:21;1.30;99.90
30648;DHT22;17683;53.360;9.736;2022-11-20T09:38:47;1.30;99.90
30648;DHT22;17683;53.360;9.736;2022-11-20T09:52:09;1.80;99.90
30648;DHT22;17683;53.360;9.736;2022-11-20T09:54:39;1.80;99.90
30648;DHT22;17683;53.360;9.736;2022-11-20T09:57:12;1.80;99.90
30648;DHT22;17683;53.360;9.736;2022-11-20T09:59:45;1.90;99.90
30648;DHT22;17683;53.360;9.736;2022-11-20T10:02:20;1.90;99.90
30648;DHT22;17683;53.360;9.736;2022-11-20T10:05:04;1.90;99.90
30648;DHT22;17683;53.360;9.736;2022-11-20T10:15:53;2.00;99.90
30648;DHT22;17683;53.360;9.736;2022-11-20T10:18:42;2.10;99.90
30648;DHT22;17683;53.360;9.736;2022-11-20T10:21:33;2.20;99.90
30648;DHT22;17683;53.360;9.736;2022-11-20T10:29:51;2.50;99.90
30648;DHT22;17683;53.360;9.736;2022-11-20T10:32:33;2.60;99.90
30648;DHT22;17683;53.360;9.736;2022-11-20T10:35:22;2.60;99.90
30648;DHT22;17683;53.360;9.736;2022-11-20T10:37:59;2.70;99.90
30648;DHT22;17683;53.360;9.736;2022-11-20T10:44:37;2.80;99.90
30648;DHT22;17683;53.360;9.736;2022-11-20T10:46:45;2.80;99.90
30648;DHT22;17683;53.360;9.736;2022-11-20T10:49:20;2.80;99.90
30648;DHT22;17683;53.360;9.736;2022-11-20T10:54:55;2.90;99.90
30648;DHT22;17683;53.360;9.736;2022-11-20T11:02:19;3.10;99.90
30648;DHT22;17683;53.360;9.736;2022-11-20T11:04:56;3.10;99.90
30648;DHT22;17683;53.360;9.736;2022-11-20T11:07:32;3.10;99.90
30648;DHT22;17683;53.360;9.736;2022-11-20T11:10:00;3.20;99.90
30648;DHT22;17683;53.360;9.736;2022-11-20T11:12:28;3.10;99.90
30648;DHT22;17683;53.360;9.736;2022-11-20T11:14:57;3.20;99.90
30648;DHT22;17683;53.360;9.736;2022-11-20T11:17:31;3.20;99.90
30648;DHT22;17683;53.360;9.736;2022-11-20T11:20:03;3.20;99.90
30648;DHT22;17683;53.360;9.736;2022-11-20T11:22:31;3.20;99.90
30648;DHT22;17683;53.360;9.736;2022-11-20T11:24:57;3.20;99.90
30648;DHT22;17683;53.360;9.736;2022-11-20T11:27:23;3.20;99.90
30648;DHT22;17683;53.360;9.736;2022-11-20T11:29:49;3.20;99.90
30648;DHT22;17683;53.360;9.736;2022-11-20T11:32:19;3.20;99.90
30648;DHT22;17683;53.360;9.736;2022-11-20T11:35:02;3.30;99.90
30648;DHT22;17683;53.360;9.736;2022-11-20T11:37:34;3.30;99.90
30648;DHT22;17683;53.360;9.736;2022-11-20T11:40:03;3.20;99.90
30648;DHT22;17683;53.360;9.736;2022-11-20T11:42:29;3.20;99.90
30648;DHT22;17683;53.360;9.736;2022-11-20T11:44:58;3.10;99.90
30648;DHT22;17683;53.360;9.736;2022-11-20T11:47:32;3.10;99.90
30648;DHT22;17683;53.360;9.736;2022-11-20T12:01:06;2.90;99.90
30648;DHT22;17683;53.360;9.736;2022-11-20T12:03:38;2.90;99.90
30648;DHT22;17683;53.360;9.736;2022-11-20T12:06:11;3.00;99.90
30648;DHT22;17683;53.360;9.736;2022-11-20T12:09:04;3.00;99.90
30648;DHT22;17683;53.360;9.736;2022-11-20T12:16:54;3.20;99.90
30648;DHT22;17683;53.360;9.736;2022-11-20T12:19:23;3.20;99.90
30648;DHT22;17683;53.360;9.736;2022-11-20T12:24:53;3.30;99.90
30648;DHT22;17683;53.360;9.736;2022-11-20T12:35:52;3.20;99.90
30648;DHT22;17683;53.360;9.736;2022-11-20T12:38:49;3.30;99.90
30648;DHT22;17683;53.360;9.736;2022-11-20T12:41:53;3.20;99.90
30648;DHT22;17683;53.360;9.736;2022-11-20T12:45:03;3.20;99.90
30648;DHT22;17683;53.360;9.736;2022-11-20T12:47:59;3.20;99.90
30648;DHT22;17683;53.360;9.736;2022-11-20T12:56:40;3.10;99.90
30648;DHT22;17683;53.360;9.736;2022-11-20T13:03:13;3.10;99.90
30648;DHT22;17683;53.360;9.736;2022-11-20T13:08:25;3.10;99.90
30648;DHT22;17683;53.360;9.736;2022-11-20T13:10:59;3.20;99.90
30648;DHT22;17683;53.360;9.736;2022-11-20T13:16:24;3.30;99.90
30648;DHT22;17683;53.360;9.736;2022-11-20T13:18:52;3.30;99.90
30648;DHT22;17683;53.360;9.736;2022-11-20T13:21:34;3.30;99.90
30648;DHT22;17683;53.360;9.736;2022-11-20T13:24:07;3.30;99.90
30648;DHT22;17683;53.360;9.736;2022-11-20T13:26:33;3.30;99.90
30648;DHT22;17683;53.360;9.736;2022-11-20T13:29:12;3.30;99.90
30648;DHT22;17683;53.360;9.736;2022-11-20T13:31:45;3.40;99.90
30648;DHT22;17683;53.360;9.736;2022-11-20T13:34:29;3.40;99.90
30648;DHT22;17683;53.360;9.736;2022-11-20T13:36:58;3.40;99.90
30648;DHT22;17683;53.360;9.736;2022-11-20T13:39:36;3.30;99.90
30648;DHT22;17683;53.360;9.736;2022-11-20T13:42:27;3.40;99.90
30648;DHT22;17683;53.360;9.736;2022-11-20T13:44:54;3.40;99.90
30648;DHT22;17683;53.360;9.736;2022-11-20T13:47:23;3.40;99.90
30648;DHT22;17683;53.360;9.736;2022-11-20T13:49:51;3.40;99.90
30648;DHT22;17683;53.360;9.736;2022-11-20T14:00:20;3.30;99.90
30648;DHT22;17683;53.360;9.736;2022-11-20T14:03:02;3.30;99.90
30648;DHT22;17683;53.360;9.736;2022-11-20T14:05:45;3.30;99.90
30648;DHT22;17683;53.360;9.736;2022-11-20T14:08:25;3.20;99.90
30648;DHT22;17683;53.360;9.736;2022-11-20T14:11:11;3.30;99.90
30648;DHT22;17683;53.360;9.736;2022-11-20T14:13:38;3.20;99.90
30648;DHT22;17683;53.360;9.736;2022-11-20T14:16:03;3.20;99.90
30648;DHT22;17683;53.360;9.736;2022-11-20T14:18:29;3.10;99.90
30648;DHT22;17683;53.360;9.736;2022-11-20T14:20:55;3.10;99.90
30648;DHT22;17683;53.360;9.736;2022-11-20T14:23:28;3.10;99.90
30648;DHT22;17683;53.360;9.736;2022-11-20T14:25:54;3.10;99.90
30648;DHT22;17683;53.360;9.736;2022-11-20T14:28:29;3.00;99.90
30648;DHT22;17683;53.360;9.736;2022-11-20T14:30:55;3.00;99.90
30648;DHT22;17683;53.360;9.736;2022-11-20T14:33:23;3.00;99.90
30648;DHT22;17683;53.360;9.736;2022-11-20T14:35:55;3.00;99.90
30648;DHT22;17683;53.360;9.736;2022-11-20T14:38:26;3.00;99.90
30648;DHT22;17683;53.360;9.736;2022-11-20T14:40:52;3.00;99.90
30648;DHT22;17683;53.360;9.736;2022-11-20T14:43:25;3.00;99.90
30648;DHT22;17683;53.360;9.736;2022-11-20T14:46:08;2.90;99.90
30648;DHT22;17683;53.360;9.736;2022-11-20T14:48:43;2.90;99.90
30648;DHT22;17683;53.360;9.736;2022-11-20T14:51:11;2.90;99.90
30648;DHT22;17683;53.360;9.736;2022-11-20T14:53:37;2.90;99.90
30648;DHT22;17683;53.360;9.736;2022-11-20T14:56:03;2.90;99.90
30648;DHT22;17683;53.360;9.736;2022-11-20T14:58:33;2.80;99.90
30648;DHT22;17683;53.360;9.736;2022-11-20T15:01:04;2.80;99.90
30648;DHT22;17683;53.360;9.736;2022-11-20T15:03:38;2.70;99.90
30648;DHT22;17683;53.360;9.736;2022-11-20T15:06:06;2.70;99.90
30648;DHT22;17683;53.360;9.736;2022-11-20T15:08:33;2.70;99.90
30648;DHT22;17683;53.360;9.736;2022-11-20T15:10:59;2.70;99.90
30648;DHT22;17683;53.360;9.736;2022-11-20T15:13:33;2.70;99.90
30648;DHT22;17683;53.360;9.736;2022-11-20T15:16:08;2.60;99.90
30648;DHT22;17683;53.360;9.736;2022-11-20T15:18:40;2.60;99.90
30648;DHT22;17683;53.360;9.736;2022-11-20T15:21:17;2.50;99.90
30648;DHT22;17683;53.360;9.736;2022-11-20T15:23:44;2.50;99.90
30648;DHT22;17683;53.360;9.736;2022-11-20T15:26:11;2.50;99.90
30648;DHT22;17683;53.360;9.736;2022-11-20T15:28:48;2.50;99.90
30648;DHT22;17683;53.360;9.736;2022-11-20T15:31:18;2.50;99.90
30648;DHT22;17683;53.360;9.736;2022-11-20T15:33:44;2.40;99.90
30648;DHT22;17683;53.360;9.736;2022-11-20T15:36:10;2.40;99.90
30648;DHT22;17683;53.360;9.736;2022-11-20T15:38:36;2.30;99.90
30648;DHT22;17683;53.360;9.736;2022-11-20T15:41:02;2.20;99.90
30648;DHT22;17683;53.360;9.736;2022-11-20T15:43:28;2.20;99.90
30648;DHT22;17683;53.360;9.736;2022-11-20T15:45:56;2.10;99.90
30648;DHT22;17683;53.360;9.736;2022-11-20T15:48:34;2.10;99.90
30648;DHT22;17683;53.360;9.736;2022-11-20T15:53:36;1.90;99.90
30648;DHT22;17683;53.360;9.736;2022-11-20T15:56:02;1.80;99.90
30648;DHT22;17683;53.360;9.736;2022-11-20T15:58:28;1.70;99.90
30648;DHT22;17683;53.360;9.736;2022-11-20T16:00:54;1.60;99.90
30648;DHT22;17683;53.360;9.736;2022-11-20T16:03:20;1.60;99.90
30648;DHT22;17683;53.360;9.736;2022-11-20T16:05:46;1.60;99.90
30648;DHT22;17683;53.360;9.736;2022-11-20T16:08:12;1.60;99.90
30648;DHT22;17683;53.360;9.736;2022-11-20T16:10:38;1.60;99.90
30648;DHT22;17683;53.360;9.736;2022-11-20T16:13:11;1.60;99.90
30648;DHT22;17683;53.360;9.736;2022-11-20T16:16:10;1.60;99.90
30648;DHT22;17683;53.360;9.736;2022-11-20T16:18:37;1.60;99.90
30648;DHT22;17683;53.360;9.736;2022-11-20T16:21:03;1.60;99.90
30648;DHT22;17683;53.360;9.736;2022-11-20T16:23:28;1.60;99.90
30648;DHT22;17683;53.360;9.736;2022-11-20T16:25:54;1.60;99.90
30648;DHT22;17683;53.360;9.736;2022-11-20T16:28:20;1.60;99.90
30648;DHT22;17683;53.360;9.736;2022-11-20T16:30:46;1.60;99.90
30648;DHT22;17683;53.360;9.736;2022-11-20T16:33:14;1.60;99.90
30648;DHT22;17683;53.360;9.736;2022-11-20T16:35:40;1.60;99.90
30648;DHT22;17683;53.360;9.736;2022-11-20T16:38:06;1.60;99.90
30648;DHT22;17683;53.360;9.736;2022-11-20T16:40:32;1.50;99.90
30648;DHT22;17683;53.360;9.736;2022-11-20T16:43:07;1.50;99.90
30648;DHT22;17683;53.360;9.736;2022-11-20T16:45:34;1.40;99.90
30648;DHT22;17683;53.360;9.736;2022-11-20T16:47:59;1.40;99.90
30648;DHT22;17683;53.360;9.736;2022-11-20T16:50:25;1.30;99.90
30648;DHT22;17683;53.360;9.736;2022-11-20T16:52:51;1.20;99.90
30648;DHT22;17683;53.360;9.736;2022-11-20T16:55:16;1.20;99.90
30648;DHT22;17683;53.360;9.736;2022-11-20T16:57:42;1.10;99.90
30648;DHT22;17683;53.360;9.736;2022-11-20T17:00:08;1.10;99.90
30648;DHT22;17683;53.360;9.736;2022-11-20T17:02:34;1.00;99.90
30648;DHT22;17683;53.360;9.736;2022-11-20T17:04:59;0.90;99.90
30648;DHT22;17683;53.360;9.736;2022-11-20T17:07:25;0.90;99.90
30648;DHT22;17683;53.360;9.736;2022-11-20T17:09:51;0.90;99.90
30648;DHT22;17683;53.360;9.736;2022-11-20T17:12:17;0.80;99.90
30648;DHT22;17683;53.360;9.736;2022-11-20T17:14:42;0.80;99.90
30648;DHT22;17683;53.360;9.736;2022-11-20T17:17:08;0.70;99.90
30648;DHT22;17683;53.360;9.736;2022-11-20T17:19:34;0.70;99.90
30648;DHT22;17683;53.360;9.736;2022-11-20T17:21:59;0.70;99.90
30648;DHT22;17683;53.360;9.736;2022-11-20T17:24:25;0.70;99.90
30648;DHT22;17683;53.360;9.736;2022-11-20T17:26:51;0.70;99.90
30648;DHT22;17683;53.360;9.736;2022-11-20T17:29:18;0.60;99.90
30648;DHT22;17683;53.360;9.736;2022-11-20T17:31:45;0.60;99.90